sensor_id;sensor_type;location;lat;lon;timestamp;P1;durP1;ratioP1;P2;durP2;ratioP2
5363;SDS011;2705;41.410;2.160;2023-04-24T00:01:56;7.20;;;3.70;;
5363;SDS011;2705;41.410;2.160;2023-04-24T00:04:26;10.17;;;3.50;;
5363;SDS011;2705;41.410;2.160;2023-04-24T00:06:55;7.93;;;3.67;;
5363;SDS011;2705;41.410;2.160;2023-04-24T00:09:27;11.90;;;3.93;;
5363;SDS011;2705;41.410;2.160;2023-04-24T00:11:58;11.40;;;3.93;;
5363;SDS011;2705;41.410;2.160;2023-04-24T00:14:29;10.70;;;3.83;;
5363;SDS011;2705;41.410;2.160;2023-04-24T00:16:59;14.60;;;4.13;;
5363;SDS011;2705;41.410;2.160;2023-04-24T00:19:29;8.90;;;4.50;;
5363;SDS011;2705;41.410;2.160;2023-04-24T00:21:58;10.57;;;3.40;;
5363;SDS011;2705;41.410;2.160;2023-04-24T00:24:27;12.23;;;4.80;;
5363;SDS011;2705;41.410;2.160;2023-04-24T00:26:58;10.63;;;3.97;;
5363;SDS011;2705;41.410;2.160;2023-04-24T00:29:28;17.23;;;3.90;;
5363;SDS011;2705;41.410;2.160;2023-04-24T00:31:57;11.17;;;3.40;;
5363;SDS011;2705;41.410;2.160;2023-04-24T00:34:26;10.80;;;4.00;;
5363;SDS011;2705;41.410;2.160;2023-04-24T00:36:55;7.40;;;3.57;;
5363;SDS011;2705;41.410;2.160;2023-04-24T00:39:25;6.03;;;3.50;;
5363;SDS011;2705;41.410;2.160;2023-04-24T00:41:54;9.17;;;4.40;;
5363;SDS011;2705;41.410;2.160;2023-04-24T00:44:26;11.77;;;4.23;;
5363;SDS011;2705;41.410;2.160;2023-04-24T00:46:55;9.63;;;3.80;;
5363;SDS011;2705;41.410;2.160;2023-04-24T00:49:26;6.07;;;3.73;;
5363;SDS011;2705;41.410;2.160;2023-04-24T00:51:56;13.97;;;3.47;;
5363;SDS011;2705;41.410;2.160;2023-04-24T00:54:26;8.33;;;3.40;;
5363;SDS011;2705;41.410;2.160;2023-04-24T00:56:55;9.87;;;4.03;;
5363;SDS011;2705;41.410;2.160;2023-04-24T00:59:26;9.80;;;3.77;;
5363;SDS011;2705;41.410;2.160;2023-04-24T01:01:55;15.83;;;5.00;;
5363;SDS011;2705;41.410;2.160;2023-04-24T01:04:25;9.13;;;3.53;;
5363;SDS011;2705;41.410;2.160;2023-04-24T01:06:55;7.67;;;3.63;;
5363;SDS011;2705;41.410;2.160;2023-04-24T01:09:25;12.50;;;3.73;;
5363;SDS011;2705;41.410;2.160;2023-04-24T01:11:54;6.43;;;3.60;;
5363;SDS011;2705;41.410;2.160;2023-04-24T01:14:24;7.30;;;3.97;;
5363;SDS011;2705;41.410;2.160;2023-04-24T01:16:54;9.47;;;4.23;;
5363;SDS011;2705;41.410;2.160;2023-04-24T01:19:24;7.67;;;3.23;;
5363;SDS011;2705;41.410;2.160;2023-04-24T01:21:53;9.50;;;2.90;;
5363;SDS011;2705;41.410;2.160;2023-04-24T01:24:28;7.43;;;3.47;;
5363;SDS011;2705;41.410;2.160;2023-04-24T01:26:57;12.63;;;3.80;;
5363;SDS011;2705;41.410;2.160;2023-04-24T01:29:28;6.67;;;3.00;;
5363;SDS011;2705;41.410;2.160;2023-04-24T01:31:57;8.40;;;3.43;;
5363;SDS011;2705;41.410;2.160;2023-04-24T01:34:26;9.50;;;3.43;;
5363;SDS011;2705;41.410;2.160;2023-04-24T01:36:56;11.80;;;3.30;;
5363;SDS011;2705;41.410;2.160;2023-04-24T01:39:25;6.33;;;3.13;;
5363;SDS011;2705;41.410;2.160;2023-04-24T01:41:56;6.60;;;2.80;;
5363;SDS011;2705;41.410;2.160;2023-04-24T01:44:26;13.60;;;3.50;;
5363;SDS011;2705;41.410;2.160;2023-04-24T01:46:55;6.40;;;4.17;;
5363;SDS011;2705;41.410;2.160;2023-04-24T01:49:25;8.00;;;3.30;;
5363;SDS011;2705;41.410;2.160;2023-04-24T01:51:55;7.67;;;2.90;;
5363;SDS011;2705;41.410;2.160;2023-04-24T01:54:24;7.03;;;3.30;;
5363;SDS011;2705;41.410;2.160;2023-04-24T01:56:56;4.70;;;2.80;;
5363;SDS011;2705;41.410;2.160;2023-04-24T01:59:26;8.10;;;3.57;;
5363;SDS011;2705;41.410;2.160;2023-04-24T02:01:57;12.17;;;3.50;;
5363;SDS011;2705;41.410;2.160;2023-04-24T02:04:26;8.57;;;2.90;;
5363;SDS011;2705;41.410;2.160;2023-04-24T02:06:55;4.03;;;2.63;;
5363;SDS011;2705;41.410;2.160;2023-04-24T02:09:24;4.03;;;2.80;;
5363;SDS011;2705;41.410;2.160;2023-04-24T02:11:55;6.53;;;3.10;;
5363;SDS011;2705;41.410;2.160;2023-04-24T02:14:25;8.30;;;3.30;;
5363;SDS011;2705;41.410;2.160;2023-04-24T02:16:54;11.37;;;3.60;;
5363;SDS011;2705;41.410;2.160;2023-04-24T02:19:23;7.10;;;2.87;;
5363;SDS011;2705;41.410;2.160;2023-04-24T02:21:52;9.13;;;2.90;;
5363;SDS011;2705;41.410;2.160;2023-04-24T02:24:21;4.83;;;2.93;;
5363;SDS011;2705;41.410;2.160;2023-04-24T02:26:51;7.60;;;3.53;;
5363;SDS011;2705;41.410;2.160;2023-04-24T02:29:21;4.77;;;2.80;;
5363;SDS011;2705;41.410;2.160;2023-04-24T02:31:50;5.33;;;3.17;;
5363;SDS011;2705;41.410;2.160;2023-04-24T02:34:19;11.90;;;3.00;;
5363;SDS011;2705;41.410;2.160;2023-04-24T02:36:50;4.13;;;2.40;;
5363;SDS011;2705;41.410;2.160;2023-04-24T02:39:20;4.40;;;2.70;;
5363;SDS011;2705;41.410;2.160;2023-04-24T02:41:51;5.70;;;2.83;;
5363;SDS011;2705;41.410;2.160;2023-04-24T02:44:22;8.10;;;2.90;;
5363;SDS011;2705;41.410;2.160;2023-04-24T02:46:52;4.60;;;2.30;;
5363;SDS011;2705;41.410;2.160;2023-04-24T02:49:22;6.93;;;2.57;;
5363;SDS011;2705;41.410;2.160;2023-04-24T02:51:51;5.80;;;2.47;;
5363;SDS011;2705;41.410;2.160;2023-04-24T02:54:21;4.73;;;2.30;;
5363;SDS011;2705;41.410;2.160;2023-04-24T02:56:50;4.20;;;2.70;;
5363;SDS011;2705;41.410;2.160;2023-04-24T02:59:19;4.90;;;2.43;;
5363;SDS011;2705;41.410;2.160;2023-04-24T03:01:49;11.10;;;3.27;;
5363;SDS011;2705;41.410;2.160;2023-04-24T03:04:18;4.17;;;2.80;;
5363;SDS011;2705;41.410;2.160;2023-04-24T03:06:48;7.10;;;3.53;;
5363;SDS011;2705;41.410;2.160;2023-04-24T03:09:19;4.70;;;2.80;;
5363;SDS011;2705;41.410;2.160;2023-04-24T03:11:48;10.20;;;2.90;;
5363;SDS011;2705;41.410;2.160;2023-04-24T03:14:18;9.47;;;3.20;;
5363;SDS011;2705;41.410;2.160;2023-04-24T03:16:47;5.57;;;3.13;;
5363;SDS011;2705;41.410;2.160;2023-04-24T03:19:18;13.97;;;3.90;;
5363;SDS011;2705;41.410;2.160;2023-04-24T03:21:57;4.80;;;2.83;;
5363;SDS011;2705;41.410;2.160;2023-04-24T03:24:27;8.77;;;3.10;;
5363;SDS011;2705;41.410;2.160;2023-04-24T03:26:57;4.93;;;3.37;;
5363;SDS011;2705;41.410;2.160;2023-04-24T03:29:59;6.83;;;2.83;;
5363;SDS011;2705;41.410;2.160;2023-04-24T03:32:53;6.47;;;3.83;;
5363;SDS011;2705;41.410;2.160;2023-04-24T03:35:26;7.20;;;2.70;;
5363;SDS011;2705;41.410;2.160;2023-04-24T03:37:58;4.13;;;2.50;;
5363;SDS011;2705;41.410;2.160;2023-04-24T03:40:45;6.97;;;3.40;;
5363;SDS011;2705;41.410;2.160;2023-04-24T03:43:40;5.50;;;2.87;;
5363;SDS011;2705;41.410;2.160;2023-04-24T03:46:10;10.57;;;3.70;;
5363;SDS011;2705;41.410;2.160;2023-04-24T03:48:45;5.17;;;2.93;;
5363;SDS011;2705;41.410;2.160;2023-04-24T03:51:17;6.20;;;3.40;;
5363;SDS011;2705;41.410;2.160;2023-04-24T03:53:49;8.00;;;3.30;;
5363;SDS011;2705;41.410;2.160;2023-04-24T03:56:21;8.07;;;3.70;;
5363;SDS011;2705;41.410;2.160;2023-04-24T03:58:50;8.00;;;3.43;;
5363;SDS011;2705;41.410;2.160;2023-04-24T04:01:19;9.33;;;4.60;;
5363;SDS011;2705;41.410;2.160;2023-04-24T04:03:59;10.30;;;4.87;;
5363;SDS011;2705;41.410;2.160;2023-04-24T04:06:29;8.47;;;4.30;;
5363;SDS011;2705;41.410;2.160;2023-04-24T04:09:00;9.50;;;4.10;;
5363;SDS011;2705;41.410;2.160;2023-04-24T04:11:30;6.00;;;3.80;;
5363;SDS011;2705;41.410;2.160;2023-04-24T04:13:59;10.43;;;4.43;;
5363;SDS011;2705;41.410;2.160;2023-04-24T04:16:28;6.77;;;4.70;;
5363;SDS011;2705;41.410;2.160;2023-04-24T04:19:03;12.37;;;5.90;;
5363;SDS011;2705;41.410;2.160;2023-04-24T04:21:32;8.70;;;4.70;;
5363;SDS011;2705;41.410;2.160;2023-04-24T04:24:10;8.07;;;4.63;;
5363;SDS011;2705;41.410;2.160;2023-04-24T04:26:44;14.97;;;5.00;;
5363;SDS011;2705;41.410;2.160;2023-04-24T04:29:24;13.40;;;5.47;;
5363;SDS011;2705;41.410;2.160;2023-04-24T04:31:55;11.93;;;5.13;;
5363;SDS011;2705;41.410;2.160;2023-04-24T04:34:26;12.83;;;5.03;;
5363;SDS011;2705;41.410;2.160;2023-04-24T04:36:55;16.20;;;5.27;;
5363;SDS011;2705;41.410;2.160;2023-04-24T04:39:50;17.50;;;6.03;;
5363;SDS011;2705;41.410;2.160;2023-04-24T04:42:23;14.33;;;6.03;;
5363;SDS011;2705;41.410;2.160;2023-04-24T04:44:53;10.17;;;5.00;;
5363;SDS011;2705;41.410;2.160;2023-04-24T04:47:34;11.00;;;5.30;;
5363;SDS011;2705;41.410;2.160;2023-04-24T04:50:05;12.00;;;5.40;;
5363;SDS011;2705;41.410;2.160;2023-04-24T04:52:35;12.10;;;5.50;;
5363;SDS011;2705;41.410;2.160;2023-04-24T04:55:16;10.50;;;5.70;;
5363;SDS011;2705;41.410;2.160;2023-04-24T04:58:07;10.23;;;5.77;;
5363;SDS011;2705;41.410;2.160;2023-04-24T05:00:36;11.03;;;6.00;;
5363;SDS011;2705;41.410;2.160;2023-04-24T05:03:14;11.33;;;6.63;;
5363;SDS011;2705;41.410;2.160;2023-04-24T05:05:56;13.43;;;6.80;;
5363;SDS011;2705;41.410;2.160;2023-04-24T05:08:28;11.30;;;5.03;;
5363;SDS011;2705;41.410;2.160;2023-04-24T05:10:58;13.77;;;5.07;;
5363;SDS011;2705;41.410;2.160;2023-04-24T05:13:29;13.67;;;6.33;;
5363;SDS011;2705;41.410;2.160;2023-04-24T05:16:17;13.73;;;5.10;;
5363;SDS011;2705;41.410;2.160;2023-04-24T05:18:48;12.20;;;5.97;;
5363;SDS011;2705;41.410;2.160;2023-04-24T05:21:24;13.70;;;5.53;;
5363;SDS011;2705;41.410;2.160;2023-04-24T05:23:54;13.80;;;5.77;;
5363;SDS011;2705;41.410;2.160;2023-04-24T05:26:44;18.13;;;6.47;;
5363;SDS011;2705;41.410;2.160;2023-04-24T05:29:17;13.53;;;6.30;;
5363;SDS011;2705;41.410;2.160;2023-04-24T05:31:46;19.97;;;6.30;;
5363;SDS011;2705;41.410;2.160;2023-04-24T05:34:15;17.20;;;5.47;;
5363;SDS011;2705;41.410;2.160;2023-04-24T05:36:51;15.43;;;5.67;;
5363;SDS011;2705;41.410;2.160;2023-04-24T05:39:20;18.67;;;7.23;;
5363;SDS011;2705;41.410;2.160;2023-04-24T05:41:53;13.60;;;5.90;;
5363;SDS011;2705;41.410;2.160;2023-04-24T05:44:25;13.97;;;6.37;;
5363;SDS011;2705;41.410;2.160;2023-04-24T05:46:54;13.77;;;6.73;;
5363;SDS011;2705;41.410;2.160;2023-04-24T05:49:24;10.63;;;6.03;;
5363;SDS011;2705;41.410;2.160;2023-04-24T05:51:55;12.80;;;5.70;;
5363;SDS011;2705;41.410;2.160;2023-04-24T05:54:25;14.03;;;6.00;;
5363;SDS011;2705;41.410;2.160;2023-04-24T05:56:55;15.80;;;6.73;;
5363;SDS011;2705;41.410;2.160;2023-04-24T05:59:34;8.67;;;5.90;;
5363;SDS011;2705;41.410;2.160;2023-04-24T06:02:05;11.83;;;5.93;;
5363;SDS011;2705;41.410;2.160;2023-04-24T06:04:35;11.97;;;6.93;;
5363;SDS011;2705;41.410;2.160;2023-04-24T06:07:07;15.53;;;5.67;;
5363;SDS011;2705;41.410;2.160;2023-04-24T06:09:36;11.83;;;6.10;;
5363;SDS011;2705;41.410;2.160;2023-04-24T06:12:06;14.07;;;7.40;;
5363;SDS011;2705;41.410;2.160;2023-04-24T06:14:50;8.50;;;6.40;;
5363;SDS011;2705;41.410;2.160;2023-04-24T06:17:42;11.30;;;6.57;;
5363;SDS011;2705;41.410;2.160;2023-04-24T06:20:16;18.07;;;6.50;;
5363;SDS011;2705;41.410;2.160;2023-04-24T06:22:47;16.20;;;7.17;;
5363;SDS011;2705;41.410;2.160;2023-04-24T06:25:17;14.90;;;6.63;;
5363;SDS011;2705;41.410;2.160;2023-04-24T06:27:47;11.83;;;6.00;;
5363;SDS011;2705;41.410;2.160;2023-04-24T06:30:16;12.10;;;6.70;;
5363;SDS011;2705;41.410;2.160;2023-04-24T06:32:45;15.50;;;6.90;;
5363;SDS011;2705;41.410;2.160;2023-04-24T06:35:15;14.53;;;7.17;;
5363;SDS011;2705;41.410;2.160;2023-04-24T06:37:46;21.80;;;7.60;;
5363;SDS011;2705;41.410;2.160;2023-04-24T06:40:17;16.10;;;7.20;;
5363;SDS011;2705;41.410;2.160;2023-04-24T06:42:46;15.53;;;7.50;;
5363;SDS011;2705;41.410;2.160;2023-04-24T06:45:16;25.87;;;8.90;;
5363;SDS011;2705;41.410;2.160;2023-04-24T06:47:45;11.90;;;8.13;;
5363;SDS011;2705;41.410;2.160;2023-04-24T06:50:15;14.50;;;7.97;;
5363;SDS011;2705;41.410;2.160;2023-04-24T06:52:44;15.37;;;8.13;;
5363;SDS011;2705;41.410;2.160;2023-04-24T06:55:15;18.47;;;8.37;;
5363;SDS011;2705;41.410;2.160;2023-04-24T06:57:44;23.20;;;11.30;;
5363;SDS011;2705;41.410;2.160;2023-04-24T07:00:13;20.93;;;9.10;;
5363;SDS011;2705;41.410;2.160;2023-04-24T07:02:43;21.93;;;8.37;;
5363;SDS011;2705;41.410;2.160;2023-04-24T07:05:12;21.50;;;11.47;;
5363;SDS011;2705;41.410;2.160;2023-04-24T07:07:42;17.73;;;8.40;;
5363;SDS011;2705;41.410;2.160;2023-04-24T07:10:12;39.70;;;18.07;;
5363;SDS011;2705;41.410;2.160;2023-04-24T07:12:43;19.17;;;8.90;;
5363;SDS011;2705;41.410;2.160;2023-04-24T07:15:14;15.90;;;8.73;;
5363;SDS011;2705;41.410;2.160;2023-04-24T07:17:44;17.10;;;8.97;;
5363;SDS011;2705;41.410;2.160;2023-04-24T07:20:13;13.33;;;8.83;;
5363;SDS011;2705;41.410;2.160;2023-04-24T07:22:43;15.37;;;9.23;;
5363;SDS011;2705;41.410;2.160;2023-04-24T07:25:12;17.73;;;9.60;;
5363;SDS011;2705;41.410;2.160;2023-04-24T07:27:43;21.53;;;9.53;;
5363;SDS011;2705;41.410;2.160;2023-04-24T07:30:12;19.30;;;9.47;;
5363;SDS011;2705;41.410;2.160;2023-04-24T07:32:42;27.67;;;9.97;;
5363;SDS011;2705;41.410;2.160;2023-04-24T07:35:11;24.70;;;11.50;;
5363;SDS011;2705;41.410;2.160;2023-04-24T07:37:41;24.67;;;10.03;;
5363;SDS011;2705;41.410;2.160;2023-04-24T07:40:13;23.53;;;10.13;;
5363;SDS011;2705;41.410;2.160;2023-04-24T07:42:43;24.47;;;9.67;;
5363;SDS011;2705;41.410;2.160;2023-04-24T07:45:34;27.40;;;9.90;;
5363;SDS011;2705;41.410;2.160;2023-04-24T07:48:40;18.00;;;8.90;;
5363;SDS011;2705;41.410;2.160;2023-04-24T07:51:09;14.93;;;8.20;;
5363;SDS011;2705;41.410;2.160;2023-04-24T07:53:40;21.60;;;8.40;;
5363;SDS011;2705;41.410;2.160;2023-04-24T07:56:10;22.27;;;7.83;;
5363;SDS011;2705;41.410;2.160;2023-04-24T07:58:41;23.00;;;8.00;;
5363;SDS011;2705;41.410;2.160;2023-04-24T08:01:10;20.03;;;8.57;;
5363;SDS011;2705;41.410;2.160;2023-04-24T08:03:39;15.80;;;8.87;;
5363;SDS011;2705;41.410;2.160;2023-04-24T08:06:09;21.10;;;10.40;;
5363;SDS011;2705;41.410;2.160;2023-04-24T08:08:39;21.30;;;9.57;;
5363;SDS011;2705;41.410;2.160;2023-04-24T08:11:08;20.90;;;9.93;;
5363;SDS011;2705;41.410;2.160;2023-04-24T08:13:37;18.37;;;7.67;;
5363;SDS011;2705;41.410;2.160;2023-04-24T08:16:08;19.73;;;8.07;;
5363;SDS011;2705;41.410;2.160;2023-04-24T08:18:38;17.57;;;8.80;;
5363;SDS011;2705;41.410;2.160;2023-04-24T08:21:07;17.23;;;7.40;;
5363;SDS011;2705;41.410;2.160;2023-04-24T08:23:38;18.93;;;9.80;;
5363;SDS011;2705;41.410;2.160;2023-04-24T08:26:07;25.13;;;8.70;;
5363;SDS011;2705;41.410;2.160;2023-04-24T08:28:38;19.33;;;9.37;;
5363;SDS011;2705;41.410;2.160;2023-04-24T08:31:08;21.87;;;7.87;;
5363;SDS011;2705;41.410;2.160;2023-04-24T08:33:38;26.50;;;9.23;;
5363;SDS011;2705;41.410;2.160;2023-04-24T08:36:08;26.40;;;8.73;;
5363;SDS011;2705;41.410;2.160;2023-04-24T08:38:37;18.90;;;8.90;;
5363;SDS011;2705;41.410;2.160;2023-04-24T08:41:09;25.67;;;8.20;;
5363;SDS011;2705;41.410;2.160;2023-04-24T08:43:38;15.90;;;7.03;;
5363;SDS011;2705;41.410;2.160;2023-04-24T08:46:10;21.17;;;7.57;;
5363;SDS011;2705;41.410;2.160;2023-04-24T08:48:41;23.77;;;8.93;;
5363;SDS011;2705;41.410;2.160;2023-04-24T08:51:11;21.10;;;7.97;;
5363;SDS011;2705;41.410;2.160;2023-04-24T08:53:40;20.63;;;9.40;;
5363;SDS011;2705;41.410;2.160;2023-04-24T08:56:10;26.20;;;8.60;;
5363;SDS011;2705;41.410;2.160;2023-04-24T08:58:40;18.37;;;8.67;;
5363;SDS011;2705;41.410;2.160;2023-04-24T09:01:13;17.93;;;8.10;;
5363;SDS011;2705;41.410;2.160;2023-04-24T09:03:42;17.37;;;7.27;;
5363;SDS011;2705;41.410;2.160;2023-04-24T09:06:12;18.47;;;6.83;;
5363;SDS011;2705;41.410;2.160;2023-04-24T09:08:42;18.90;;;9.17;;
5363;SDS011;2705;41.410;2.160;2023-04-24T09:11:12;17.27;;;7.10;;
5363;SDS011;2705;41.410;2.160;2023-04-24T09:13:41;19.70;;;6.30;;
5363;SDS011;2705;41.410;2.160;2023-04-24T09:16:13;14.40;;;7.17;;
5363;SDS011;2705;41.410;2.160;2023-04-24T09:18:42;17.03;;;7.63;;
5363;SDS011;2705;41.410;2.160;2023-04-24T09:21:12;21.17;;;7.03;;
5363;SDS011;2705;41.410;2.160;2023-04-24T09:23:42;22.47;;;7.63;;
5363;SDS011;2705;41.410;2.160;2023-04-24T09:26:12;13.70;;;6.23;;
5363;SDS011;2705;41.410;2.160;2023-04-24T09:28:41;17.00;;;5.23;;
5363;SDS011;2705;41.410;2.160;2023-04-24T09:31:14;16.93;;;5.60;;
5363;SDS011;2705;41.410;2.160;2023-04-24T09:33:53;13.40;;;6.07;;
5363;SDS011;2705;41.410;2.160;2023-04-24T09:36:27;12.37;;;5.33;;
5363;SDS011;2705;41.410;2.160;2023-04-24T09:39:00;10.33;;;5.20;;
5363;SDS011;2705;41.410;2.160;2023-04-24T09:41:31;11.17;;;6.10;;
5363;SDS011;2705;41.410;2.160;2023-04-24T09:44:10;15.23;;;5.77;;
5363;SDS011;2705;41.410;2.160;2023-04-24T09:46:42;11.80;;;5.90;;
5363;SDS011;2705;41.410;2.160;2023-04-24T09:49:13;17.87;;;8.43;;
5363;SDS011;2705;41.410;2.160;2023-04-24T09:51:44;20.10;;;10.83;;
5363;SDS011;2705;41.410;2.160;2023-04-24T09:54:14;17.80;;;6.70;;
5363;SDS011;2705;41.410;2.160;2023-04-24T09:56:45;16.27;;;6.40;;
5363;SDS011;2705;41.410;2.160;2023-04-24T09:59:15;18.60;;;7.07;;
5363;SDS011;2705;41.410;2.160;2023-04-24T10:01:47;30.60;;;8.37;;
5363;SDS011;2705;41.410;2.160;2023-04-24T10:04:18;15.77;;;5.87;;
5363;SDS011;2705;41.410;2.160;2023-04-24T10:06:48;13.00;;;5.70;;
5363;SDS011;2705;41.410;2.160;2023-04-24T10:09:19;11.90;;;4.70;;
5363;SDS011;2705;41.410;2.160;2023-04-24T10:11:55;26.17;;;5.80;;
5363;SDS011;2705;41.410;2.160;2023-04-24T10:14:24;15.50;;;6.93;;
5363;SDS011;2705;41.410;2.160;2023-04-24T10:16:55;17.10;;;5.97;;
5363;SDS011;2705;41.410;2.160;2023-04-24T10:19:25;16.60;;;7.17;;
5363;SDS011;2705;41.410;2.160;2023-04-24T10:21:55;17.40;;;7.73;;
5363;SDS011;2705;41.410;2.160;2023-04-24T10:24:25;14.53;;;6.33;;
5363;SDS011;2705;41.410;2.160;2023-04-24T10:26:55;15.57;;;6.40;;
5363;SDS011;2705;41.410;2.160;2023-04-24T10:29:25;29.23;;;9.77;;
5363;SDS011;2705;41.410;2.160;2023-04-24T10:31:56;12.43;;;6.40;;
5363;SDS011;2705;41.410;2.160;2023-04-24T10:34:25;20.77;;;8.43;;
5363;SDS011;2705;41.410;2.160;2023-04-24T10:36:55;19.83;;;6.23;;
5363;SDS011;2705;41.410;2.160;2023-04-24T10:39:25;15.27;;;6.63;;
5363;SDS011;2705;41.410;2.160;2023-04-24T10:41:56;12.67;;;6.20;;
5363;SDS011;2705;41.410;2.160;2023-04-24T10:44:25;12.50;;;6.00;;
5363;SDS011;2705;41.410;2.160;2023-04-24T10:47:07;10.37;;;5.50;;
5363;SDS011;2705;41.410;2.160;2023-04-24T10:49:42;26.47;;;6.10;;
5363;SDS011;2705;41.410;2.160;2023-04-24T10:52:11;12.53;;;5.67;;
5363;SDS011;2705;41.410;2.160;2023-04-24T10:54:44;9.67;;;4.90;;
5363;SDS011;2705;41.410;2.160;2023-04-24T10:57:26;16.20;;;5.83;;
5363;SDS011;2705;41.410;2.160;2023-04-24T11:00:19;18.13;;;6.27;;
5363;SDS011;2705;41.410;2.160;2023-04-24T11:02:52;12.93;;;5.00;;
5363;SDS011;2705;41.410;2.160;2023-04-24T11:05:22;14.47;;;5.60;;
5363;SDS011;2705;41.410;2.160;2023-04-24T11:08:29;26.57;;;7.10;;
5363;SDS011;2705;41.410;2.160;2023-04-24T11:11:03;21.00;;;5.97;;
5363;SDS011;2705;41.410;2.160;2023-04-24T11:16:36;13.10;;;5.77;;
5363;SDS011;2705;41.410;2.160;2023-04-24T11:19:21;17.03;;;6.20;;
5363;SDS011;2705;41.410;2.160;2023-04-24T11:21:56;15.43;;;5.90;;
5363;SDS011;2705;41.410;2.160;2023-04-24T11:24:28;14.40;;;5.90;;
5363;SDS011;2705;41.410;2.160;2023-04-24T11:26:59;9.17;;;5.40;;
5363;SDS011;2705;41.410;2.160;2023-04-24T11:29:40;15.50;;;6.90;;
5363;SDS011;2705;41.410;2.160;2023-04-24T11:32:15;18.03;;;5.60;;
5363;SDS011;2705;41.410;2.160;2023-04-24T11:34:48;13.30;;;6.50;;
5363;SDS011;2705;41.410;2.160;2023-04-24T11:37:19;15.10;;;6.20;;
5363;SDS011;2705;41.410;2.160;2023-04-24T11:39:50;12.70;;;6.63;;
5363;SDS011;2705;41.410;2.160;2023-04-24T11:42:21;16.60;;;5.93;;
5363;SDS011;2705;41.410;2.160;2023-04-24T11:44:52;16.20;;;5.70;;
5363;SDS011;2705;41.410;2.160;2023-04-24T11:47:28;18.33;;;6.77;;
5363;SDS011;2705;41.410;2.160;2023-04-24T11:50:01;11.67;;;6.10;;
5363;SDS011;2705;41.410;2.160;2023-04-24T11:52:33;16.87;;;6.20;;
5363;SDS011;2705;41.410;2.160;2023-04-24T11:55:06;20.50;;;6.70;;
5363;SDS011;2705;41.410;2.160;2023-04-24T11:57:37;15.57;;;5.93;;
5363;SDS011;2705;41.410;2.160;2023-04-24T12:00:06;23.03;;;6.30;;
5363;SDS011;2705;41.410;2.160;2023-04-24T12:02:39;14.10;;;6.40;;
5363;SDS011;2705;41.410;2.160;2023-04-24T12:05:12;15.37;;;4.83;;
5363;SDS011;2705;41.410;2.160;2023-04-24T12:07:48;11.10;;;5.77;;
5363;SDS011;2705;41.410;2.160;2023-04-24T12:10:19;14.50;;;6.37;;
5363;SDS011;2705;41.410;2.160;2023-04-24T12:12:50;17.20;;;6.90;;
5363;SDS011;2705;41.410;2.160;2023-04-24T12:15:20;13.57;;;6.97;;
5363;SDS011;2705;41.410;2.160;2023-04-24T12:17:50;11.77;;;6.67;;
5363;SDS011;2705;41.410;2.160;2023-04-24T12:20:26;18.80;;;7.30;;
5363;SDS011;2705;41.410;2.160;2023-04-24T12:22:56;12.20;;;6.10;;
5363;SDS011;2705;41.410;2.160;2023-04-24T12:25:28;12.70;;;6.70;;
5363;SDS011;2705;41.410;2.160;2023-04-24T12:28:08;12.50;;;6.10;;
5363;SDS011;2705;41.410;2.160;2023-04-24T12:30:40;14.43;;;6.50;;
5363;SDS011;2705;41.410;2.160;2023-04-24T12:33:11;13.90;;;6.53;;
5363;SDS011;2705;41.410;2.160;2023-04-24T12:35:42;18.87;;;6.80;;
5363;SDS011;2705;41.410;2.160;2023-04-24T12:38:12;21.13;;;7.73;;
5363;SDS011;2705;41.410;2.160;2023-04-24T12:40:42;14.63;;;5.80;;
5363;SDS011;2705;41.410;2.160;2023-04-24T12:43:15;14.23;;;6.93;;
5363;SDS011;2705;41.410;2.160;2023-04-24T12:45:45;12.83;;;6.57;;
5363;SDS011;2705;41.410;2.160;2023-04-24T12:48:16;13.43;;;7.37;;
5363;SDS011;2705;41.410;2.160;2023-04-24T12:50:48;13.67;;;6.33;;
5363;SDS011;2705;41.410;2.160;2023-04-24T12:53:17;20.30;;;6.10;;
5363;SDS011;2705;41.410;2.160;2023-04-24T12:55:47;15.20;;;7.17;;
5363;SDS011;2705;41.410;2.160;2023-04-24T12:58:20;18.17;;;7.73;;
5363;SDS011;2705;41.410;2.160;2023-04-24T13:00:49;20.10;;;8.90;;
5363;SDS011;2705;41.410;2.160;2023-04-24T13:03:42;18.80;;;8.93;;
5363;SDS011;2705;41.410;2.160;2023-04-24T13:06:14;16.10;;;8.20;;
5363;SDS011;2705;41.410;2.160;2023-04-24T13:08:43;12.33;;;7.60;;
5363;SDS011;2705;41.410;2.160;2023-04-24T13:11:14;16.83;;;8.00;;
5363;SDS011;2705;41.410;2.160;2023-04-24T13:13:43;16.53;;;7.43;;
5363;SDS011;2705;41.410;2.160;2023-04-24T13:16:12;13.57;;;5.80;;
5363;SDS011;2705;41.410;2.160;2023-04-24T13:18:42;18.77;;;5.83;;
5363;SDS011;2705;41.410;2.160;2023-04-24T13:21:11;19.87;;;7.03;;
5363;SDS011;2705;41.410;2.160;2023-04-24T13:23:42;15.10;;;5.63;;
5363;SDS011;2705;41.410;2.160;2023-04-24T13:26:11;12.40;;;5.53;;
5363;SDS011;2705;41.410;2.160;2023-04-24T13:28:40;16.63;;;7.33;;
5363;SDS011;2705;41.410;2.160;2023-04-24T13:31:09;15.70;;;6.70;;
5363;SDS011;2705;41.410;2.160;2023-04-24T13:33:39;24.03;;;7.20;;
5363;SDS011;2705;41.410;2.160;2023-04-24T13:36:08;11.90;;;5.07;;
5363;SDS011;2705;41.410;2.160;2023-04-24T13:38:37;11.33;;;5.47;;
5363;SDS011;2705;41.410;2.160;2023-04-24T13:41:08;15.67;;;5.50;;
5363;SDS011;2705;41.410;2.160;2023-04-24T13:43:37;16.50;;;5.33;;
5363;SDS011;2705;41.410;2.160;2023-04-24T13:46:09;14.37;;;5.73;;
5363;SDS011;2705;41.410;2.160;2023-04-24T13:48:38;7.97;;;5.00;;
5363;SDS011;2705;41.410;2.160;2023-04-24T13:51:07;13.03;;;4.93;;
5363;SDS011;2705;41.410;2.160;2023-04-24T13:53:36;14.03;;;5.13;;
5363;SDS011;2705;41.410;2.160;2023-04-24T13:56:06;14.57;;;5.80;;
5363;SDS011;2705;41.410;2.160;2023-04-24T13:58:36;15.93;;;5.43;;
5363;SDS011;2705;41.410;2.160;2023-04-24T14:01:06;15.03;;;5.10;;
5363;SDS011;2705;41.410;2.160;2023-04-24T14:04:01;13.70;;;5.30;;
5363;SDS011;2705;41.410;2.160;2023-04-24T14:06:31;13.37;;;5.17;;
5363;SDS011;2705;41.410;2.160;2023-04-24T14:09:00;17.50;;;5.97;;
5363;SDS011;2705;41.410;2.160;2023-04-24T14:11:31;11.37;;;3.50;;
5363;SDS011;2705;41.410;2.160;2023-04-24T14:14:00;13.37;;;5.93;;
5363;SDS011;2705;41.410;2.160;2023-04-24T14:16:30;7.47;;;4.20;;
5363;SDS011;2705;41.410;2.160;2023-04-24T14:18:59;7.60;;;3.90;;
5363;SDS011;2705;41.410;2.160;2023-04-24T14:21:28;7.70;;;3.40;;
5363;SDS011;2705;41.410;2.160;2023-04-24T14:23:58;8.10;;;3.83;;
5363;SDS011;2705;41.410;2.160;2023-04-24T14:26:27;10.73;;;5.23;;
5363;SDS011;2705;41.410;2.160;2023-04-24T14:28:57;11.00;;;4.23;;
5363;SDS011;2705;41.410;2.160;2023-04-24T14:31:40;11.43;;;4.70;;
5363;SDS011;2705;41.410;2.160;2023-04-24T14:34:11;7.33;;;4.23;;
5363;SDS011;2705;41.410;2.160;2023-04-24T14:36:42;9.13;;;4.13;;
5363;SDS011;2705;41.410;2.160;2023-04-24T14:39:12;13.20;;;5.00;;
5363;SDS011;2705;41.410;2.160;2023-04-24T14:41:40;18.63;;;5.50;;
5363;SDS011;2705;41.410;2.160;2023-04-24T14:44:11;7.07;;;3.30;;
5363;SDS011;2705;41.410;2.160;2023-04-24T14:46:41;10.77;;;4.70;;
5363;SDS011;2705;41.410;2.160;2023-04-24T14:49:10;10.53;;;4.50;;
5363;SDS011;2705;41.410;2.160;2023-04-24T14:51:40;7.60;;;3.90;;
5363;SDS011;2705;41.410;2.160;2023-04-24T14:54:09;6.57;;;3.10;;
5363;SDS011;2705;41.410;2.160;2023-04-24T14:56:38;12.27;;;4.47;;
5363;SDS011;2705;41.410;2.160;2023-04-24T14:59:08;11.03;;;4.83;;
5363;SDS011;2705;41.410;2.160;2023-04-24T15:01:38;7.40;;;3.73;;
5363;SDS011;2705;41.410;2.160;2023-04-24T15:04:08;8.70;;;4.40;;
5363;SDS011;2705;41.410;2.160;2023-04-24T15:06:37;8.30;;;3.17;;
5363;SDS011;2705;41.410;2.160;2023-04-24T15:09:06;15.60;;;4.73;;
5363;SDS011;2705;41.410;2.160;2023-04-24T15:11:36;7.27;;;3.40;;
5363;SDS011;2705;41.410;2.160;2023-04-24T15:14:05;15.73;;;5.13;;
5363;SDS011;2705;41.410;2.160;2023-04-24T15:16:38;12.20;;;4.67;;
5363;SDS011;2705;41.410;2.160;2023-04-24T15:19:08;14.63;;;6.83;;
5363;SDS011;2705;41.410;2.160;2023-04-24T15:21:37;10.20;;;5.00;;
5363;SDS011;2705;41.410;2.160;2023-04-24T15:24:07;15.03;;;5.73;;
5363;SDS011;2705;41.410;2.160;2023-04-24T15:26:37;9.70;;;3.97;;
5363;SDS011;2705;41.410;2.160;2023-04-24T15:29:06;13.73;;;4.27;;
5363;SDS011;2705;41.410;2.160;2023-04-24T15:31:35;13.83;;;5.67;;
5363;SDS011;2705;41.410;2.160;2023-04-24T15:34:08;14.07;;;5.77;;
5363;SDS011;2705;41.410;2.160;2023-04-24T15:36:38;12.30;;;4.57;;